createdAt,value
2022-12-18T00:02:00.917Z,81.72
2022-12-18T00:04:28.964Z,81.36
2022-12-18T00:06:56.408Z,82.70
2022-12-18T00:09:24.696Z,83.44
2022-12-18T00:11:52.253Z,82.91
2022-12-18T00:14:19.587Z,82.63
2022-12-18T00:16:48.710Z,83.29
2022-12-18T00:19:16.397Z,82.95
2022-12-18T00:21:44.343Z,84.32
2022-12-18T00:24:12.555Z,84.48
2022-12-18T00:26:40.366Z,85.39
2022-12-18T00:29:08.935Z,85.17
2022-12-18T00:31:36.370Z,85.70
2022-12-18T00:34:05.384Z,84.02
2022-12-18T00:36:34.205Z,83.34
2022-12-18T00:39:02.310Z,83.07
2022-12-18T00:41:47.585Z,82.91
2022-12-18T00:44:16.010Z,83.15
2022-12-18T00:46:43.613Z,82.08
2022-12-18T00:49:12.309Z,82.07
2022-12-18T00:51:39.673Z,81.39
2022-12-18T00:54:07.475Z,81.57
2022-12-18T00:56:34.811Z,82.04
2022-12-18T00:59:02.166Z,82.44
2022-12-18T01:01:29.661Z,83.07
2022-12-18T01:03:57.818Z,82.82
2022-12-18T01:06:26.519Z,82.21
2022-12-18T01:08:53.865Z,81.39
2022-12-18T01:11:21.985Z,81.20
2022-12-18T01:13:49.568Z,81.91
2022-12-18T01:16:18.216Z,82.58
2022-12-18T01:18:45.942Z,82.66
2022-12-18T01:21:14.518Z,82.77
2022-12-18T01:23:46.968Z,82.57
2022-12-18T01:26:16.190Z,82.63
2022-12-18T01:28:44.602Z,82.40
2022-12-18T01:31:16.365Z,83.28
2022-12-18T01:33:44.040Z,83.23
2022-12-18T01:36:16.838Z,82.90
2022-12-18T01:38:45.505Z,82.41
2022-12-18T01:41:12.825Z,82.61
2022-12-18T01:43:47.579Z,82.52
2022-12-18T01:46:15.033Z,82.60
2022-12-18T01:48:42.735Z,82.45
2022-12-18T01:51:11.563Z,82.00
2022-12-18T01:53:40.475Z,81.92
2022-12-18T01:56:10.303Z,82.33
2022-12-18T01:58:42.253Z,82.49
2022-12-18T02:01:10.079Z,81.94
2022-12-18T02:03:38.529Z,82.37
2022-12-18T02:06:11.705Z,82.13
2022-12-18T02:08:42.052Z,82.70
2022-12-18T02:11:13.170Z,82.70
2022-12-18T02:13:44.373Z,82.42
2022-12-18T02:16:15.774Z,82.37
2022-12-18T02:18:45.431Z,82.22
2022-12-18T02:21:20.265Z,81.92
2022-12-18T02:23:51.575Z,82.52
2022-12-18T02:26:22.602Z,82.91
2022-12-18T02:28:53.402Z,82.42
2022-12-18T02:31:23.393Z,81.94
2022-12-18T02:33:51.410Z,82.27
2022-12-18T02:36:19.551Z,81.39
2022-12-18T02:38:47.960Z,81.84
2022-12-18T02:41:16.434Z,81.81
2022-12-18T02:43:49.355Z,81.11
2022-12-18T02:46:28.449Z,80.96
2022-12-18T02:48:58.559Z,80.04
2022-12-18T02:51:30.986Z,79.65
2022-12-18T02:54:02.925Z,79.76
2022-12-18T02:56:35.875Z,79.69
2022-12-18T02:59:06.518Z,79.56
2022-12-18T03:01:35.963Z,79.53
2022-12-18T03:04:06.107Z,79.40
2022-12-18T03:06:35.473Z,79.80
2022-12-18T03:09:07.911Z,80.40
2022-12-18T03:11:53.591Z,81.03
2022-12-18T03:14:22.961Z,81.04
2022-12-18T03:16:51.928Z,80.88
2022-12-18T03:19:23.085Z,80.76
2022-12-18T03:21:53.427Z,81.48
2022-12-18T03:24:22.174Z,81.39
2022-12-18T03:26:52.671Z,80.63
2022-12-18T03:29:22.095Z,80.70
2022-12-18T03:31:53.266Z,80.48
2022-12-18T03:34:23.886Z,80.80
2022-12-18T03:36:51.283Z,80.88
2022-12-18T03:39:18.669Z,81.51
2022-12-18T03:41:48.075Z,81.43
2022-12-18T03:44:17.129Z,80.67
2022-12-18T03:46:48.639Z,81.42
2022-12-18T03:49:21.327Z,81.39
2022-12-18T03:51:51.322Z,81.02
2022-12-18T03:54:19.873Z,80.44
2022-12-18T03:56:48.793Z,80.62
2022-12-18T03:59:17.192Z,80.90
2022-12-18T04:01:47.242Z,82.18
2022-12-18T04:04:15.344Z,81.41
2022-12-18T04:06:45.591Z,81.61
2022-12-18T04:09:13.054Z,81.12
2022-12-18T04:11:41.570Z,81.36
2022-12-18T04:14:11.852Z,81.82
2022-12-18T04:16:41.876Z,81.97
2022-12-18T04:19:09.234Z,81.42
2022-12-18T04:21:36.609Z,82.16
2022-12-18T04:24:05.852Z,81.93
2022-12-18T04:26:33.195Z,81.17
2022-12-18T04:29:00.527Z,81.30
2022-12-18T04:31:27.931Z,81.19
2022-12-18T04:33:55.307Z,81.18
2022-12-18T04:36:22.724Z,81.14
2022-12-18T04:38:50.051Z,81.72
2022-12-18T04:41:18.722Z,82.21
2022-12-18T04:43:46.070Z,82.05
2022-12-18T04:46:13.485Z,82.84
2022-12-18T04:48:40.835Z,81.89
2022-12-18T04:51:08.556Z,82.33
2022-12-18T04:53:35.898Z,81.69
2022-12-18T04:56:07.390Z,81.40
2022-12-18T04:58:36.183Z,81.59
2022-12-18T05:01:04.197Z,81.96
2022-12-18T05:03:31.915Z,82.28
2022-12-18T05:05:59.312Z,81.32
2022-12-18T05:08:26.708Z,81.58
2022-12-18T05:10:59.991Z,82.65
2022-12-18T05:13:27.477Z,82.44
2022-12-18T05:15:56.360Z,83.18
2022-12-18T05:18:24.375Z,82.59
2022-12-18T05:20:51.780Z,82.27
2022-12-18T05:23:19.655Z,81.94
2022-12-18T05:25:48.579Z,82.17
2022-12-18T05:28:15.921Z,81.98
2022-12-18T05:30:43.243Z,82.13
2022-12-18T05:33:11.927Z,81.75
2022-12-18T05:35:39.252Z,81.14
2022-12-18T05:38:06.595Z,81.29
2022-12-18T05:40:33.976Z,80.59
2022-12-18T05:43:01.293Z,80.31
2022-12-18T05:45:28.708Z,81.12
2022-12-18T05:47:56.024Z,81.88
2022-12-18T05:50:25.743Z,81.08
2022-12-18T05:52:53.087Z,80.41
2022-12-18T05:55:20.394Z,80.60
2022-12-18T05:57:47.721Z,80.69
2022-12-18T06:00:15.712Z,80.75
2022-12-18T06:02:43.179Z,81.56
2022-12-18T06:05:11.788Z,81.77
2022-12-18T06:07:40.488Z,81.58
2022-12-18T06:10:08.094Z,82.03
2022-12-18T06:12:35.432Z,82.21
2022-12-18T06:15:02.804Z,81.95
2022-12-18T06:17:30.853Z,81.81
2022-12-18T06:19:58.154Z,82.04
2022-12-18T06:22:25.950Z,81.59
2022-12-18T06:24:54.640Z,81.58
2022-12-18T06:27:21.981Z,81.35
2022-12-18T06:29:49.313Z,81.19
2022-12-18T06:32:16.879Z,81.06
2022-12-18T06:34:44.241Z,80.84
2022-12-18T06:37:11.710Z,81.33
2022-12-18T06:39:39.017Z,82.01
2022-12-18T06:42:07.825Z,82.48
2022-12-18T06:44:35.133Z,82.24
2022-12-18T06:47:02.495Z,82.21
2022-12-18T06:49:30.748Z,81.18
2022-12-18T06:51:58.137Z,81.10
2022-12-18T06:54:25.837Z,81.46
2022-12-18T06:56:53.143Z,82.12
2022-12-18T06:59:21.834Z,81.95
2022-12-18T07:01:49.308Z,81.40
2022-12-18T07:04:16.754Z,81.28
2022-12-18T07:06:44.109Z,81.78
2022-12-18T07:09:11.460Z,81.70
2022-12-18T07:11:38.811Z,81.13
2022-12-18T07:14:06.359Z,81.35
2022-12-18T07:16:35.100Z,81.67
2022-12-18T07:19:02.445Z,81.77
2022-12-18T07:21:29.778Z,81.56
2022-12-18T07:23:57.462Z,81.16
2022-12-18T07:26:24.811Z,81.33
2022-12-18T07:28:52.485Z,81.27
2022-12-18T07:31:21.551Z,82.31
2022-12-18T07:33:51.198Z,82.76
2022-12-18T07:36:18.922Z,82.29
2022-12-18T07:38:48.314Z,83.08
2022-12-18T07:41:15.916Z,82.98
2022-12-18T07:43:44.174Z,83.56
2022-12-18T07:46:14.550Z,82.66
2022-12-18T07:48:42.052Z,81.32
2022-12-18T07:51:13.247Z,81.23
2022-12-18T07:53:41.260Z,81.11
2022-12-18T07:56:27.860Z,79.83
2022-12-18T07:58:55.799Z,79.56
2022-12-18T08:01:23.365Z,79.90
2022-12-18T08:03:52.530Z,80.13
2022-12-18T08:06:23.241Z,79.98
2022-12-18T08:08:52.783Z,79.99
2022-12-18T08:11:20.099Z,80.55
2022-12-18T08:13:48.946Z,80.80
2022-12-18T08:16:16.967Z,80.64
2022-12-18T08:18:44.835Z,80.87
2022-12-18T08:21:12.616Z,81.61
2022-12-18T08:23:43.266Z,81.29
2022-12-18T08:26:11.325Z,81.49
2022-12-18T08:28:38.726Z,81.87
2022-12-18T08:31:06.513Z,81.64
2022-12-18T08:33:34.299Z,81.32
2022-12-18T08:36:02.241Z,81.82
2022-12-18T08:38:29.977Z,82.53
2022-12-18T08:41:02.154Z,82.91
2022-12-18T08:43:47.158Z,82.90
2022-12-18T08:46:14.748Z,82.49
2022-12-18T08:48:42.157Z,82.83
2022-12-18T08:51:10.475Z,81.90
2022-12-18T08:53:38.367Z,82.53
2022-12-18T08:56:07.899Z,82.70
2022-12-18T08:58:35.410Z,82.10
2022-12-18T09:01:03.457Z,81.88
2022-12-18T09:03:31.217Z,81.56
2022-12-18T09:05:58.787Z,82.06
2022-12-18T09:08:26.226Z,81.98
2022-12-18T09:10:53.763Z,81.99
2022-12-18T09:13:22.982Z,82.82
2022-12-18T09:15:51.538Z,82.43
2022-12-18T09:18:19.909Z,82.19
2022-12-18T09:20:47.238Z,82.85
2022-12-18T09:23:14.948Z,82.46
2022-12-18T09:25:42.344Z,82.00
2022-12-18T09:28:12.914Z,82.39
2022-12-18T09:30:44.273Z,82.04
2022-12-18T09:33:11.628Z,82.97
2022-12-18T09:35:40.109Z,83.20
2022-12-18T09:38:08.105Z,83.11
2022-12-18T09:40:36.810Z,82.90
2022-12-18T09:43:07.409Z,82.82
2022-12-18T09:45:40.984Z,82.19
2022-12-18T09:48:12.519Z,82.27
2022-12-18T09:50:41.715Z,81.54
2022-12-18T09:53:14.003Z,81.06
2022-12-18T09:55:43.064Z,81.51
2022-12-18T09:58:17.458Z,80.55
2022-12-18T10:00:45.254Z,80.33
2022-12-18T10:03:16.147Z,80.34
2022-12-18T10:05:48.791Z,79.61
2022-12-18T10:08:21.356Z,79.31
2022-12-18T10:10:50.479Z,79.15
2022-12-18T10:13:23.723Z,78.63
2022-12-18T10:15:59.660Z,78.59
2022-12-18T10:18:34.264Z,78.58
2022-12-18T10:21:05.844Z,78.13
2022-12-18T10:23:36.592Z,78.24
2022-12-18T10:26:05.354Z,78.04
2022-12-18T10:28:34.400Z,77.69
2022-12-18T10:31:01.777Z,77.44
2022-12-18T10:33:33.083Z,76.92
2022-12-18T10:36:01.036Z,76.79
2022-12-18T10:38:29.958Z,76.84
2022-12-18T10:40:58.279Z,76.61
2022-12-18T10:43:26.937Z,75.98
2022-12-18T10:46:02.191Z,75.57
2022-12-18T10:48:32.112Z,75.24
2022-12-18T10:51:10.876Z,75.53
2022-12-18T10:53:42.067Z,75.46
2022-12-18T10:56:09.412Z,75.35
2022-12-18T10:58:37.722Z,74.76
2022-12-18T11:01:10.377Z,74.75
2022-12-18T11:03:40.204Z,75.38
2022-12-18T11:06:09.099Z,74.62
2022-12-18T11:08:36.510Z,74.38
2022-12-18T11:11:04.028Z,74.67
2022-12-18T11:13:32.678Z,74.46
2022-12-18T11:16:00.922Z,74.00
2022-12-18T11:18:29.727Z,73.62
2022-12-18T11:20:59.839Z,73.88
2022-12-18T11:23:27.765Z,74.31
2022-12-18T11:25:56.940Z,74.32
2022-12-18T11:28:28.745Z,74.13
2022-12-18T11:31:11.497Z,73.72
2022-12-18T11:33:53.164Z,73.99
2022-12-18T11:36:31.474Z,73.77
2022-12-18T11:39:00.928Z,72.67
2022-12-18T11:41:45.802Z,72.62
2022-12-18T11:44:16.621Z,72.39
2022-12-18T11:46:49.455Z,73.08
2022-12-18T11:49:21.984Z,72.93
2022-12-18T11:51:53.500Z,73.71
2022-12-18T11:54:20.823Z,73.69
2022-12-18T11:56:51.273Z,73.36
2022-12-18T11:59:26.565Z,74.01
2022-12-18T12:01:57.642Z,73.39
2022-12-18T12:04:37.936Z,73.28
2022-12-18T12:07:14.821Z,74.02
2022-12-18T12:09:48.196Z,73.99
2022-12-18T12:12:26.082Z,74.21
2022-12-18T12:14:57.086Z,73.96
2022-12-18T12:17:30.429Z,74.30
2022-12-18T12:20:02.494Z,74.73
2022-12-18T12:22:35.468Z,73.93
2022-12-18T12:25:20.115Z,74.41
2022-12-18T12:27:50.837Z,74.32
2022-12-18T12:30:20.880Z,74.61
2022-12-18T12:32:55.788Z,74.21
2022-12-18T12:35:30.294Z,73.25
2022-12-18T12:38:05.420Z,73.50
2022-12-18T12:40:56.984Z,73.38
2022-12-18T12:43:25.992Z,72.53
2022-12-18T12:45:55.675Z,73.19
2022-12-18T12:48:29.513Z,73.29
2022-12-18T12:50:57.305Z,72.82
2022-12-18T12:53:29.374Z,72.99
2022-12-18T12:55:57.824Z,73.09
2022-12-18T12:58:29.182Z,73.29
2022-12-18T13:00:59.527Z,74.14
2022-12-18T13:03:34.408Z,73.63
2022-12-18T13:06:04.629Z,73.49
2022-12-18T13:08:52.700Z,74.56
2022-12-18T13:11:49.360Z,74.08
2022-12-18T13:14:22.991Z,74.90
2022-12-18T13:16:51.305Z,75.16
2022-12-18T13:19:24.500Z,74.77
2022-12-18T13:21:55.233Z,75.03
2022-12-18T13:24:26.810Z,75.87
2022-12-18T13:26:54.515Z,75.56
2022-12-18T13:29:40.638Z,76.21
2022-12-18T13:32:20.836Z,76.06
2022-12-18T13:34:50.151Z,76.99
2022-12-18T13:37:36.178Z,77.01
2022-12-18T13:40:28.120Z,77.31
2022-12-18T13:43:14.808Z,77.58
2022-12-18T13:45:49.807Z,77.59
2022-12-18T13:48:25.117Z,77.47
2022-12-18T13:51:04.322Z,77.25
2022-12-18T13:53:33.871Z,77.68
2022-12-18T13:56:03.991Z,77.70
2022-12-18T13:58:31.446Z,77.82
2022-12-18T14:01:00.108Z,77.63
2022-12-18T14:03:29.192Z,78.21
2022-12-18T14:05:59.759Z,78.41
2022-12-18T14:08:29.358Z,79.15
2022-12-18T14:10:57.121Z,78.83
2022-12-18T14:13:28.929Z,79.43
2022-12-18T14:15:57.490Z,79.12
2022-12-18T14:18:27.528Z,79.70
2022-12-18T14:20:56.790Z,79.98
2022-12-18T14:23:31.189Z,79.64
2022-12-18T14:26:02.228Z,80.26
2022-12-18T14:28:34.485Z,80.08
2022-12-18T14:31:01.897Z,80.56
2022-12-18T14:33:29.472Z,80.43
2022-12-18T14:35:59.409Z,81.25
2022-12-18T14:38:29.612Z,81.20
2022-12-18T14:40:58.936Z,81.76
2022-12-18T14:43:26.965Z,81.46
2022-12-18T14:45:56.008Z,81.69
2022-12-18T14:48:25.842Z,81.89
2022-12-18T14:50:57.554Z,81.55
2022-12-18T14:53:26.723Z,82.06
2022-12-18T14:55:54.166Z,81.56
2022-12-18T14:58:21.560Z,82.30
2022-12-18T15:00:48.935Z,81.93
2022-12-18T15:03:20.146Z,82.08
2022-12-18T15:05:47.593Z,82.49
2022-12-18T15:08:32.458Z,82.82
2022-12-18T15:11:00.309Z,83.16
2022-12-18T15:13:28.805Z,83.43
2022-12-18T15:15:57.179Z,83.02
2022-12-18T15:18:31.979Z,83.12
2022-12-18T15:21:01.009Z,83.67
2022-12-18T15:23:30.029Z,83.90
2022-12-18T15:25:58.444Z,83.14
2022-12-18T15:28:27.392Z,83.64
2022-12-18T15:31:01.854Z,83.56
2022-12-18T15:33:32.487Z,83.47
2022-12-18T15:36:00.287Z,83.45
2022-12-18T15:38:27.731Z,83.36
2022-12-18T15:40:55.568Z,83.74
2022-12-18T15:43:34.884Z,83.74
2022-12-18T15:46:02.806Z,83.91
2022-12-18T15:48:31.608Z,83.30
2022-12-18T15:50:59.597Z,83.62
2022-12-18T15:53:29.606Z,83.21
2022-12-18T15:56:14.846Z,83.87
2022-12-18T15:58:42.164Z,83.32
2022-12-18T16:01:10.631Z,83.40
2022-12-18T16:03:39.858Z,83.22
2022-12-18T16:06:07.852Z,83.76
2022-12-18T16:08:35.979Z,84.02
2022-12-18T16:11:03.506Z,83.86
2022-12-18T16:13:31.032Z,83.90
2022-12-18T16:15:58.757Z,83.32
2022-12-18T16:18:26.447Z,83.54
2022-12-18T16:20:55.135Z,83.65
2022-12-18T16:23:22.530Z,82.84
2022-12-18T16:25:49.860Z,83.52
2022-12-18T16:28:17.190Z,83.07
2022-12-18T16:30:45.713Z,82.99
2022-12-18T16:33:13.144Z,83.54
2022-12-18T16:35:40.495Z,83.16
2022-12-18T16:38:09.167Z,84.02
2022-12-18T16:40:57.484Z,83.46
2022-12-18T16:43:25.127Z,83.79
2022-12-18T16:45:52.474Z,83.44
2022-12-18T16:48:19.786Z,83.88
2022-12-18T16:50:47.156Z,83.81
2022-12-18T16:53:15.905Z,82.82
2022-12-18T16:55:43.219Z,82.91
2022-12-18T16:58:10.562Z,83.13
2022-12-18T17:00:39.448Z,83.64
2022-12-18T17:03:07.016Z,83.95
2022-12-18T17:05:35.174Z,83.66
2022-12-18T17:08:02.534Z,83.36
2022-12-18T17:10:31.343Z,83.47
2022-12-18T17:12:59.955Z,83.50
2022-12-18T17:15:27.349Z,83.53
2022-12-18T17:17:54.674Z,83.78
2022-12-18T17:20:23.381Z,83.43
2022-12-18T17:22:50.750Z,84.18
2022-12-18T17:25:18.227Z,83.84
2022-12-18T17:27:46.874Z,83.33
2022-12-18T17:30:14.580Z,83.92
2022-12-18T17:32:41.922Z,83.33
2022-12-18T17:35:09.610Z,83.58
2022-12-18T17:37:37.137Z,83.39
2022-12-18T17:40:04.801Z,83.87
2022-12-18T17:42:32.331Z,83.99
2022-12-18T17:45:01.010Z,83.66
2022-12-18T17:47:28.405Z,83.89
2022-12-18T17:49:55.812Z,83.63
2022-12-18T17:52:24.579Z,83.80
2022-12-18T17:54:52.829Z,84.02
2022-12-18T17:57:20.171Z,83.58
2022-12-18T17:59:47.817Z,83.50
2022-12-18T18:02:16.603Z,83.69
2022-12-18T18:04:44.928Z,83.13
2022-12-18T18:07:12.258Z,82.90
2022-12-18T18:09:39.627Z,82.89
2022-12-18T18:12:24.729Z,83.22
2022-12-18T18:14:52.208Z,82.88
2022-12-18T18:17:21.301Z,82.24
2022-12-18T18:19:49.631Z,82.38
2022-12-18T18:22:17.241Z,81.95
2022-12-18T18:24:46.684Z,82.51
2022-12-18T18:27:14.878Z,82.39
2022-12-18T18:29:42.471Z,82.16
2022-12-18T18:32:09.814Z,82.16
2022-12-18T18:34:41.414Z,82.04
2022-12-18T18:37:08.747Z,81.80
2022-12-18T18:39:36.587Z,81.62
2022-12-18T18:42:04.020Z,81.69
2022-12-18T18:44:31.567Z,82.06
2022-12-18T18:46:59.743Z,81.73
2022-12-18T18:49:29.843Z,81.68
2022-12-18T18:51:59.054Z,81.07
2022-12-18T18:54:26.795Z,81.18
2022-12-18T18:59:41.460Z,81.62
2022-12-18T19:02:10.270Z,81.14
2022-12-18T19:04:46.375Z,81.32
2022-12-18T19:07:20.367Z,81.12
2022-12-18T19:09:59.598Z,81.68
2022-12-18T19:12:49.446Z,81.18
2022-12-18T19:15:16.770Z,81.49
2022-12-18T19:17:46.681Z,81.33
2022-12-18T19:20:15.081Z,81.69
2022-12-18T19:22:44.799Z,81.31
2022-12-18T19:25:19.505Z,81.98
2022-12-18T19:27:47.159Z,81.88
2022-12-18T19:30:14.589Z,81.29
2022-12-18T19:32:42.101Z,81.20
2022-12-18T19:35:10.275Z,81.05
2022-12-18T19:37:39.014Z,80.94
2022-12-18T19:40:12.283Z,81.13
2022-12-18T19:42:40.067Z,80.74
2022-12-18T19:45:07.944Z,80.62
2022-12-18T19:47:35.412Z,79.97
2022-12-18T19:50:02.893Z,80.65
2022-12-18T19:52:30.476Z,80.34
2022-12-18T19:54:57.825Z,80.11
2022-12-18T19:57:26.490Z,79.67
2022-12-18T19:59:53.885Z,80.30
2022-12-18T20:02:21.558Z,80.39
2022-12-18T20:04:49.679Z,79.91
2022-12-18T20:07:16.986Z,79.97
2022-12-18T20:09:44.842Z,80.10
2022-12-18T20:12:13.058Z,80.39
2022-12-18T20:14:41.921Z,80.18
2022-12-18T20:17:09.404Z,80.45
2022-12-18T20:19:37.033Z,80.10
2022-12-18T20:22:04.421Z,80.26
2022-12-18T20:24:31.796Z,79.87
2022-12-18T20:26:59.144Z,79.37
2022-12-18T20:29:26.495Z,79.64
2022-12-18T20:31:55.204Z,79.70
2022-12-18T20:34:22.587Z,79.26
2022-12-18T20:36:50.140Z,79.32
2022-12-18T20:39:18.734Z,78.96
2022-12-18T20:41:46.552Z,79.07
2022-12-18T20:44:22.500Z,79.33
2022-12-18T20:46:52.211Z,79.39
2022-12-18T20:49:20.888Z,78.83
2022-12-18T20:51:50.434Z,78.48
2022-12-18T20:54:17.903Z,79.01
2022-12-18T20:56:45.251Z,78.83
2022-12-18T20:59:12.873Z,78.31
2022-12-18T21:01:41.596Z,78.24
2022-12-18T21:04:15.351Z,78.20
2022-12-18T21:06:51.322Z,78.28
2022-12-18T21:09:20.325Z,78.34
2022-12-18T21:12:05.250Z,78.29
2022-12-18T21:14:32.575Z,78.28
2022-12-18T21:17:01.928Z,78.18
2022-12-18T21:19:29.987Z,77.84
2022-12-18T21:21:58.911Z,77.64
2022-12-18T21:24:26.581Z,77.85
2022-12-18T21:26:56.167Z,77.76
2022-12-18T21:29:24.890Z,78.11
2022-12-18T21:31:52.460Z,78.14
2022-12-18T21:34:21.186Z,78.22
2022-12-18T21:36:48.983Z,78.27
2022-12-18T21:39:18.178Z,78.50
2022-12-18T21:42:04.871Z,78.60
2022-12-18T21:44:37.310Z,78.27
2022-12-18T22:01:41.500Z,78.72
2022-12-18T22:04:08.956Z,78.56
2022-12-18T22:06:36.405Z,78.32
2022-12-18T22:09:04.183Z,78.87
2022-12-18T22:11:31.847Z,78.69
2022-12-18T22:13:59.500Z,78.60
2022-12-18T22:16:26.898Z,79.15
2022-12-18T22:18:55.853Z,78.93
2022-12-18T22:21:29.007Z,78.76
2022-12-18T22:23:57.521Z,79.09
2022-12-18T22:26:25.758Z,79.28
2022-12-18T22:29:10.763Z,79.36
2022-12-18T22:31:38.319Z,78.93
2022-12-18T22:34:07.291Z,79.23
2022-12-18T22:36:38.310Z,79.09
2022-12-18T22:39:07.525Z,79.21
2022-12-18T22:41:35.579Z,78.82
2022-12-18T22:44:02.932Z,79.78
2022-12-18T22:46:31.743Z,79.08
2022-12-18T22:48:59.239Z,79.16
2022-12-18T22:51:27.891Z,78.87
2022-12-18T22:53:55.323Z,79.27
2022-12-18T22:56:22.670Z,78.47
2022-12-18T22:58:50.468Z,78.55
2022-12-18T23:01:22.125Z,78.14
2022-12-18T23:03:49.639Z,78.05
2022-12-18T23:06:17.320Z,77.94
2022-12-18T23:08:45.988Z,77.98
2022-12-18T23:11:13.686Z,77.79
2022-12-18T23:13:42.766Z,77.73
2022-12-18T23:16:11.010Z,78.30
2022-12-18T23:18:38.473Z,77.93
2022-12-18T23:21:06.694Z,78.01
2022-12-18T23:23:35.821Z,78.06
2022-12-18T23:26:05.746Z,78.11
2022-12-18T23:28:33.763Z,77.35
2022-12-18T23:31:06.409Z,77.26
2022-12-18T23:33:37.688Z,77.45
2022-12-18T23:36:05.847Z,77.32
2022-12-18T23:38:34.187Z,77.19
2022-12-18T23:41:07.392Z,77.59
2022-12-18T23:43:36.115Z,76.70
2022-12-18T23:46:03.533Z,76.97
2022-12-18T23:48:30.977Z,76.93
2022-12-18T23:50:58.296Z,77.21
2022-12-18T23:53:25.625Z,77.03
2022-12-18T23:55:52.959Z,76.86
2022-12-18T23:58:22.002Z,76.70
